Time;durP1;ratioP1;P1;durP2;ratioP2;P2;SDS_P1;SDS_P2;PMS_P1;PMS_P2;Temp;Humidity;BMP_temperature;BMP_pressure;BME280_temperature;BME280_humidity;BME280_pressure;Samples;Min_cycle;Max_cycle;Signal;HPM_P1;HPM_P2
2021/03/23 00:00:29;;;;;;;5.03;3.22;;;8.50;99.90;;;;;;5037380;28;20122;-90
2021/03/23 00:02:56;;;;;;;3.67;2.55;;;8.50;99.90;;;;;;5037471;28;20057;-90
2021/03/23 00:05:23;;;;;;;4.20;2.72;;;8.50;99.90;;;;;;5037127;28;20132;-90
2021/03/23 00:07:49;;;;;;;5.93;2.40;;;8.50;99.90;;;;;;5037217;28;20129;-90
2021/03/23 00:10:16;;;;;;;5.10;2.90;;;8.50;99.90;;;;;;5037143;28;20057;-90
2021/03/23 00:12:43;;;;;;;4.75;2.47;;;8.50;99.90;;;;;;5036945;28;20060;-90
2021/03/23 00:15:11;;;;;;;3.75;2.55;;;8.50;99.90;;;;;;5037179;28;20045;-90
2021/03/23 00:17:38;;;;;;;7.97;2.80;;;8.40;99.90;;;;;;5036609;28;20053;-90
2021/03/23 00:20:06;;;;;;;5.57;3.08;;;8.40;99.90;;;;;;5036965;28;20053;-90
2021/03/23 00:22:34;;;;;;;3.60;2.75;;;8.40;99.90;;;;;;5036613;28;20382;-90
2021/03/23 00:25:01;;;;;;;4.88;2.90;;;8.40;99.90;;;;;;5036947;28;20084;-90
2021/03/23 00:27:27;;;;;;;5.05;3.10;;;8.40;99.90;;;;;;5036796;28;20053;-90
2021/03/23 00:29:54;;;;;;;7.40;3.10;;;8.40;99.90;;;;;;5036855;28;20060;-89
2021/03/23 00:32:20;;;;;;;8.85;4.18;;;8.40;99.90;;;;;;5035750;28;20060;-91
2021/03/23 00:34:48;;;;;;;7.18;3.90;;;8.40;99.90;;;;;;5036412;28;20164;-92
2021/03/23 00:37:15;;;;;;;9.70;4.50;;;8.40;99.90;;;;;;5036774;28;20132;-91
2021/03/23 00:39:41;;;;;;;7.82;4.95;;;8.30;99.90;;;;;;5036573;28;20385;-90
2021/03/23 00:42:08;;;;;;;8.57;4.75;;;8.40;99.90;;;;;;5036880;28;20105;-91
2021/03/23 00:44:35;;;;;;;6.28;4.50;;;8.30;99.90;;;;;;5036710;28;20050;-90
2021/03/23 00:47:01;;;;;;;8.05;4.72;;;8.30;99.90;;;;;;5036342;28;20053;-90
2021/03/23 00:49:28;;;;;;;6.78;3.67;;;8.30;99.90;;;;;;5036526;28;20060;-90
2021/03/23 00:51:55;;;;;;;8.35;4.05;;;8.30;99.90;;;;;;5031354;28;20053;-90
2021/03/23 00:54:22;;;;;;;8.52;4.10;;;8.30;99.90;;;;;;5015937;28;20401;-90
2021/03/23 00:56:48;;;;;;;7.47;3.60;;;8.30;99.90;;;;;;5016127;28;20057;-90
2021/03/23 00:59:15;;;;;;;9.15;4.15;;;8.30;99.90;;;;;;5016228;28;20512;-90
2021/03/23 01:01:42;;;;;;;11.70;5.68;;;8.20;99.90;;;;;;5016629;28;20115;-91
2021/03/23 01:04:08;;;;;;;21.38;10.35;;;8.30;99.90;;;;;;5016362;28;20451;-91
2021/03/23 01:06:35;;;;;;;27.10;13.13;;;8.30;99.90;;;;;;5016246;28;20053;-90
2021/03/23 01:09:02;;;;;;;29.23;15.02;;;8.20;99.90;;;;;;5016199;28;20049;-90
2021/03/23 01:11:29;;;;;;;26.20;15.13;;;8.20;99.90;;;;;;5016119;28;20046;-91
2021/03/23 01:13:56;;;;;;;28.92;15.45;;;8.20;99.90;;;;;;5016353;28;20068;-90
2021/03/23 01:16:22;;;;;;;29.10;15.18;;;8.20;99.90;;;;;;5016045;28;20115;-91
2021/03/23 01:18:49;;;;;;;25.90;14.43;;;8.20;99.90;;;;;;5015948;28;20405;-91
2021/03/23 01:21:15;;;;;;;27.52;15.15;;;8.20;99.90;;;;;;5016187;28;20087;-90
2021/03/23 01:23:42;;;;;;;24.67;13.85;;;8.20;99.90;;;;;;5016019;28;20063;-90
2021/03/23 01:26:09;;;;;;;20.23;11.80;;;8.20;99.90;;;;;;5015891;28;20060;-90
2021/03/23 01:28:36;;;;;;;16.75;9.13;;;8.20;99.90;;;;;;5015836;28;20474;-90
2021/03/23 01:31:03;;;;;;;15.07;8.85;;;8.20;99.90;;;;;;5015969;28;20049;-90
2021/03/23 01:33:29;;;;;;;14.18;8.30;;;8.20;99.90;;;;;;5016042;28;20046;-90
2021/03/23 01:35:56;;;;;;;15.68;7.80;;;8.20;99.90;;;;;;5015714;28;20060;-90
2021/03/23 01:38:22;;;;;;;10.60;5.78;;;8.20;99.90;;;;;;5015342;28;20057;-90
2021/03/23 01:40:49;;;;;;;11.25;6.35;;;8.20;99.90;;;;;;5015738;28;20046;-90
2021/03/23 01:43:21;;;;;;;10.18;6.10;;;8.20;99.90;;;;;;5015412;28;20053;-90
2021/03/23 01:45:48;;;;;;;8.48;4.90;;;8.20;99.90;;;;;;5015452;28;20455;-90
2021/03/23 01:48:19;;;;;;;9.57;4.82;;;8.20;99.90;;;;;;5015776;28;20053;-90
2021/03/23 01:50:47;;;;;;;9.80;4.80;;;8.20;99.90;;;;;;5015690;28;20132;-91
2021/03/23 01:53:16;;;;;;;11.10;5.63;;;8.20;99.90;;;;;;5015217;28;20382;-90
2021/03/23 01:55:43;;;;;;;14.35;5.70;;;8.20;99.90;;;;;;5015456;28;20049;-90
2021/03/23 01:58:10;;;;;;;11.45;6.00;;;8.20;99.90;;;;;;5015358;28;20050;-91
2021/03/23 02:00:38;;;;;;;12.60;6.85;;;8.20;99.90;;;;;;5015140;28;20053;-90
2021/03/23 02:03:04;;;;;;;7.32;3.97;;;8.20;99.90;;;;;;5015519;28;20126;-90
2021/03/23 02:05:32;;;;;;;7.78;4.47;;;8.10;99.90;;;;;;5015242;28;20060;-90
2021/03/23 02:07:59;;;;;;;7.97;4.38;;;8.10;99.90;;;;;;5015103;28;20049;-90
2021/03/23 02:10:25;;;;;;;5.28;3.42;;;8.10;99.90;;;;;;5015127;28;20193;-90
2021/03/23 02:12:52;;;;;;;9.55;4.10;;;8.10;99.90;;;;;;5015077;28;20049;-91
2021/03/23 02:15:20;;;;;;;8.63;3.80;;;8.10;99.90;;;;;;5015093;28;20057;-91
2021/03/23 02:18:05;;;;;;;7.20;3.35;;;8.10;99.90;;;;;;5014801;28;20107;-90
2021/03/23 02:20:32;;;;;;;7.65;2.95;;;8.10;99.90;;;;;;5015070;28;20046;-90
2021/03/23 02:23:05;;;;;;;5.43;2.88;;;8.10;99.90;;;;;;5028238;28;20523;-91
2021/03/23 02:25:31;;;;;;;3.97;2.42;;;8.10;99.90;;;;;;5034789;28;20468;-90
2021/03/23 02:27:58;;;;;;;3.75;1.90;;;8.10;99.90;;;;;;5034617;28;20056;-90
2021/03/23 02:30:30;;;;;;;4.53;2.00;;;8.10;99.90;;;;;;5034872;28;20446;-90
2021/03/23 02:32:57;;;;;;;4.30;1.67;;;8.10;99.90;;;;;;5034663;28;20450;-90
2021/03/23 02:35:24;;;;;;;4.18;2.28;;;8.10;99.90;;;;;;5034998;28;20045;-90
2021/03/23 02:37:50;;;;;;;3.13;1.85;;;8.10;99.90;;;;;;5034473;28;20111;-90
2021/03/23 02:40:18;;;;;;;3.72;1.65;;;8.10;99.90;;;;;;5034443;28;20057;-90
2021/03/23 02:42:45;;;;;;;3.00;1.48;;;8.10;99.90;;;;;;5034689;28;20049;-90
2021/03/23 02:45:12;;;;;;;3.72;1.58;;;8.10;99.90;;;;;;5034474;28;20049;-91
2021/03/23 02:47:39;;;;;;;4.22;1.70;;;8.00;99.90;;;;;;5034702;28;20056;-90
2021/03/23 02:50:07;;;;;;;3.65;1.38;;;8.00;99.90;;;;;;5034642;28;20059;-89
2021/03/23 02:52:33;;;;;;;4.55;1.80;;;8.00;99.90;;;;;;5024299;28;20085;-90
2021/03/23 02:55:00;;;;;;;3.60;1.63;;;8.00;99.90;;;;;;5016507;28;20046;-90
2021/03/23 02:57:27;;;;;;;2.15;1.38;;;8.00;99.90;;;;;;5018857;28;20053;-91
2021/03/23 02:59:54;;;;;;;2.10;1.33;;;8.00;99.90;;;;;;5018765;28;20049;-91
2021/03/23 03:02:20;;;;;;;3.08;1.20;;;8.00;99.90;;;;;;5018516;28;20375;-90
2021/03/23 03:04:47;;;;;;;4.25;1.77;;;8.00;99.90;;;;;;5018457;28;20493;-90
2021/03/23 03:07:14;;;;;;;4.65;1.38;;;8.00;99.90;;;;;;5018724;28;20050;-90
2021/03/23 03:09:40;;;;;;;2.90;1.33;;;8.00;99.90;;;;;;5018499;28;20057;-91
2021/03/23 03:12:08;;;;;;;3.30;1.40;;;8.00;99.90;;;;;;5018342;28;20060;-91
2021/03/23 03:14:36;;;;;;;2.40;1.10;;;7.90;99.90;;;;;;5018231;28;20134;-90
2021/03/23 03:17:02;;;;;;;2.85;1.05;;;8.00;99.90;;;;;;5018322;28;20057;-90
2021/03/23 03:19:29;;;;;;;3.00;1.40;;;7.90;99.90;;;;;;5018288;28;20046;-90
2021/03/23 03:21:55;;;;;;;1.73;0.90;;;7.90;99.90;;;;;;5018321;28;20057;-90
2021/03/23 03:24:22;;;;;;;2.38;1.58;;;7.90;99.90;;;;;;5018160;28;20056;-90
2021/03/23 03:26:49;;;;;;;2.80;1.08;;;7.90;99.90;;;;;;5017984;28;20471;-91
2021/03/23 03:29:15;;;;;;;2.50;0.70;;;7.90;99.90;;;;;;5018163;28;20076;-90
2021/03/23 03:31:43;;;;;;;1.90;0.85;;;7.90;99.90;;;;;;5018338;28;20053;-90
2021/03/23 03:34:09;;;;;;;1.45;0.80;;;7.90;99.90;;;;;;5017974;28;20046;-90
2021/03/23 03:36:36;;;;;;;2.10;1.10;;;7.90;99.90;;;;;;5017986;28;20092;-90
2021/03/23 03:39:03;;;;;;;1.30;0.55;;;7.80;99.90;;;;;;5017811;28;20485;-90
2021/03/23 03:41:29;;;;;;;2.08;0.98;;;7.80;99.90;;;;;;5017825;28;20060;-90
2021/03/23 03:43:56;;;;;;;2.35;0.80;;;7.90;99.90;;;;;;5017987;28;20053;-90
2021/03/23 03:46:23;;;;;;;4.00;1.13;;;7.90;99.90;;;;;;5017765;28;20050;-90
2021/03/23 03:48:50;;;;;;;1.05;0.70;;;7.90;99.90;;;;;;5017898;28;20054;-89
2021/03/23 03:51:17;;;;;;;1.80;1.00;;;7.80;99.90;;;;;;5017863;28;20053;-90
2021/03/23 03:53:43;;;;;;;0.98;0.50;;;7.90;99.90;;;;;;4998115;28;20054;-90
2021/03/23 03:56:10;;;;;;;1.58;0.75;;;7.80;99.90;;;;;;4997986;28;20046;-90
2021/03/23 03:58:36;;;;;;;2.50;0.90;;;7.90;99.90;;;;;;4997947;28;20058;-90
2021/03/23 04:01:03;;;;;;;1.63;0.77;;;7.80;99.90;;;;;;4998147;28;20091;-91
2021/03/23 04:03:30;;;;;;;2.22;1.13;;;7.90;99.90;;;;;;4997850;28;20052;-90
2021/03/23 04:05:58;;;;;;;1.08;0.60;;;7.80;99.90;;;;;;4996587;28;20080;-90
2021/03/23 04:08:26;;;;;;;1.05;0.95;;;7.80;99.90;;;;;;4997967;28;20050;-90
2021/03/23 04:10:52;;;;;;;4.10;1.00;;;7.80;99.90;;;;;;4997691;28;20056;-89
2021/03/23 04:13:19;;;;;;;1.50;0.85;;;7.80;99.90;;;;;;4997734;28;20050;-91
2021/03/23 04:15:47;;;;;;;4.85;0.90;;;7.80;99.90;;;;;;4997600;28;20054;-90
2021/03/23 04:18:14;;;;;;;2.72;0.80;;;7.80;99.90;;;;;;4997692;28;20058;-90
2021/03/23 04:20:41;;;;;;;1.95;0.95;;;7.80;99.90;;;;;;4997564;28;20061;-90
2021/03/23 04:23:10;;;;;;;2.30;1.02;;;7.80;99.90;;;;;;5012131;28;20057;-90
2021/03/23 04:25:36;;;;;;;1.58;0.98;;;7.80;99.90;;;;;;5017433;28;20054;-90
2021/03/23 04:28:03;;;;;;;2.20;1.45;;;7.80;99.90;;;;;;5017295;28;20122;-89
2021/03/23 04:30:30;;;;;;;2.90;1.10;;;7.80;99.90;;;;;;5017209;28;20429;-90
2021/03/23 04:32:56;;;;;;;1.33;1.05;;;7.80;99.90;;;;;;5017217;28;20060;-91
2021/03/23 04:35:26;;;;;;;1.27;0.85;;;7.80;99.90;;;;;;5016785;28;20046;-90
2021/03/23 04:37:52;;;;;;;2.08;1.17;;;7.80;99.90;;;;;;5016743;28;20057;-90
2021/03/23 04:40:21;;;;;;;2.75;1.17;;;7.80;99.90;;;;;;5016584;28;20060;-90
2021/03/23 04:42:47;;;;;;;3.10;1.23;;;7.80;99.90;;;;;;5016939;28;20053;-90
2021/03/23 04:45:14;;;;;;;3.08;1.20;;;7.80;99.90;;;;;;5016534;28;20046;-90
2021/03/23 04:47:41;;;;;;;2.22;1.10;;;7.80;99.90;;;;;;5016631;28;20064;-89
2021/03/23 04:50:09;;;;;;;1.25;0.98;;;7.70;99.90;;;;;;5016575;28;20108;-90
2021/03/23 04:52:36;;;;;;;3.05;1.30;;;7.80;99.90;;;;;;5016312;28;20132;-90
2021/03/23 04:55:03;;;;;;;2.70;1.33;;;7.80;99.90;;;;;;5016448;28;20046;-90
2021/03/23 04:57:30;;;;;;;2.08;1.20;;;7.80;99.90;;;;;;5016823;28;20118;-90
2021/03/23 04:59:57;;;;;;;1.10;0.80;;;7.80;99.90;;;;;;5016444;28;20050;-90
2021/03/23 05:02:23;;;;;;;1.60;1.10;;;7.80;99.90;;;;;;5016678;28;20532;-90
2021/03/23 05:04:50;;;;;;;2.40;1.15;;;7.80;99.90;;;;;;5016246;28;20046;-90
2021/03/23 05:07:17;;;;;;;2.42;1.45;;;7.70;99.90;;;;;;5016641;28;20083;-91
2021/03/23 05:09:43;;;;;;;2.80;1.10;;;7.70;99.90;;;;;;5016298;28;20050;-90
2021/03/23 05:12:11;;;;;;;2.78;1.20;;;7.70;99.90;;;;;;5016507;28;20124;-89
2021/03/23 05:14:38;;;;;;;2.10;1.50;;;7.70;99.90;;;;;;5016033;28;20462;-90
2021/03/23 05:17:06;;;;;;;3.30;1.30;;;7.70;99.90;;;;;;5015665;28;20443;-90
2021/03/23 05:19:32;;;;;;;3.10;1.17;;;7.70;99.90;;;;;;5015996;28;20049;-90
2021/03/23 05:21:59;;;;;;;2.75;0.82;;;7.70;99.90;;;;;;5015955;28;20042;-90
2021/03/23 05:24:25;;;;;;;2.25;1.00;;;7.70;99.90;;;;;;5015897;28;20104;-90
2021/03/23 05:26:52;;;;;;;3.92;1.55;;;7.70;99.90;;;;;;5015846;28;20477;-90
2021/03/23 05:29:18;;;;;;;4.03;1.13;;;7.70;99.90;;;;;;5016138;28;20060;-90
2021/03/23 05:31:47;;;;;;;2.28;0.98;;;7.70;99.90;;;;;;5016021;28;20045;-90
2021/03/23 05:34:13;;;;;;;2.60;1.08;;;7.70;99.90;;;;;;5015988;28;20118;-90
2021/03/23 05:36:41;;;;;;;5.40;1.45;;;7.70;99.90;;;;;;5015666;28;20103;-90
2021/03/23 05:39:08;;;;;;;2.22;1.25;;;7.70;99.90;;;;;;5015475;28;20566;-90
2021/03/23 05:41:40;;;;;;;3.20;1.52;;;7.70;99.90;;;;;;5015951;28;20056;-90
2021/03/23 05:44:15;;;;;;;2.97;1.40;;;7.80;99.90;;;;;;5015535;28;20050;-90
2021/03/23 05:46:41;;;;;;;2.88;1.35;;;7.80;99.90;;;;;;5015614;28;20050;-90
2021/03/23 05:49:36;;;;;;;2.85;1.90;;;7.70;99.90;;;;;;5015519;28;20054;-90
2021/03/23 05:52:09;;;;;;;1.45;1.20;;;7.70;99.90;;;;;;5011556;28;20060;-90
2021/03/23 05:54:41;;;;;;;3.10;1.60;;;7.70;99.90;;;;;;5015697;28;20054;-90
2021/03/23 05:57:13;;;;;;;2.35;1.40;;;7.70;99.90;;;;;;5015278;28;20478;-89
2021/03/23 05:59:43;;;;;;;3.00;2.08;;;7.70;99.90;;;;;;5015427;28;20046;-90
2021/03/23 06:02:18;;;;;;;3.35;1.40;;;7.70;99.90;;;;;;5015850;28;20049;-90
2021/03/23 06:04:46;;;;;;;4.95;2.10;;;7.70;99.90;;;;;;5015491;28;20058;-89
2021/03/23 06:07:14;;;;;;;5.50;1.73;;;7.60;99.90;;;;;;5015216;28;20046;-91
2021/03/23 06:09:40;;;;;;;6.38;2.25;;;7.70;99.90;;;;;;5015080;28;20049;-90
2021/03/23 06:12:12;;;;;;;3.20;1.58;;;7.60;99.90;;;;;;5015018;28;20049;-89
2021/03/23 06:14:46;;;;;;;3.78;2.28;;;7.70;99.90;;;;;;5014963;28;20053;-90
2021/03/23 06:17:19;;;;;;;4.65;1.58;;;7.60;99.90;;;;;;5015137;28;20054;-90
2021/03/23 06:19:50;;;;;;;2.92;1.85;;;7.70;99.90;;;;;;5015321;28;20597;-89
2021/03/23 06:22:35;;;;;;;2.60;1.63;;;7.60;99.90;;;;;;5014928;28;20553;-89
2021/03/23 06:25:05;;;;;;;2.33;1.42;;;7.60;99.90;;;;;;5014946;28;20046;-89
2021/03/23 06:27:36;;;;;;;2.53;1.60;;;7.60;99.90;;;;;;5015218;28;20135;-90
2021/03/23 06:30:40;;;;;;;4.78;2.15;;;7.60;99.90;;;;;;5014432;28;20050;-89
2021/03/23 06:33:09;;;;;;;2.13;1.17;;;7.70;99.90;;;;;;5015149;28;20055;-90
2021/03/23 06:35:38;;;;;;;3.95;1.88;;;7.70;99.90;;;;;;5014938;28;20100;-90
2021/03/23 06:38:05;;;;;;;4.03;1.85;;;7.60;99.90;;;;;;5014813;28;20054;-90
2021/03/23 06:40:33;;;;;;;4.85;1.60;;;7.70;99.90;;;;;;5014716;28;20132;-89
2021/03/23 06:43:14;;;;;;;4.38;1.80;;;7.70;99.90;;;;;;5014627;28;20064;-89
2021/03/23 06:45:41;;;;;;;4.45;1.70;;;7.70;99.90;;;;;;5014863;28;20053;-90
2021/03/23 06:48:22;;;;;;;3.50;1.60;;;7.70;99.90;;;;;;5014842;28;20050;-90
2021/03/23 06:50:50;;;;;;;6.47;2.13;;;7.70;99.90;;;;;;5014795;28;20058;-90
2021/03/23 06:53:17;;;;;;;4.85;2.20;;;7.70;99.90;;;;;;5014424;28;20064;-90
2021/03/23 06:55:45;;;;;;;2.28;1.60;;;7.80;99.90;;;;;;5014860;28;20064;-89
2021/03/23 06:58:27;;;;;;;4.70;1.65;;;7.70;99.90;;;;;;5014589;28;20056;-90
2021/03/23 07:01:16;;;;;;;4.75;1.75;;;7.70;99.90;;;;;;5014697;28;20082;-90
2021/03/23 07:03:44;;;;;;;4.03;1.60;;;7.70;99.90;;;;;;5014728;28;20050;-90
2021/03/23 07:06:25;;;;;;;2.60;1.55;;;7.70;99.90;;;;;;5014383;28;20050;-90
2021/03/23 07:09:11;;;;;;;4.07;1.60;;;7.80;99.90;;;;;;5014548;28;20391;-90
2021/03/23 07:11:59;;;;;;;2.03;1.83;;;7.80;99.90;;;;;;5014068;28;20050;-89
2021/03/23 07:14:29;;;;;;;3.47;1.85;;;7.80;99.90;;;;;;5014647;28;20141;-90
2021/03/23 07:17:06;;;;;;;3.85;2.03;;;7.80;99.90;;;;;;5014493;28;20060;-90
2021/03/23 07:19:45;;;;;;;4.85;1.73;;;7.80;99.90;;;;;;5014215;28;20052;-90
2021/03/23 07:22:17;;;;;;;3.35;1.85;;;7.90;99.90;;;;;;5014438;28;20060;-89
2021/03/23 07:24:52;;;;;;;5.65;2.00;;;7.90;99.90;;;;;;5014397;28;20045;-90
2021/03/23 07:27:19;;;;;;;4.43;1.90;;;7.90;99.90;;;;;;5014368;28;20046;-90
2021/03/23 07:29:46;;;;;;;4.82;2.15;;;7.90;99.90;;;;;;5014310;28;20133;-89
2021/03/23 07:32:17;;;;;;;5.57;2.88;;;7.90;99.90;;;;;;5014295;28;20050;-90
2021/03/23 07:34:55;;;;;;;3.03;1.77;;;8.00;99.90;;;;;;5014208;28;20042;-90
2021/03/23 07:37:24;;;;;;;4.28;2.55;;;8.00;99.90;;;;;;5014240;28;20053;-90
2021/03/23 07:39:53;;;;;;;4.57;2.08;;;8.00;99.90;;;;;;5014662;28;20086;-90
2021/03/23 07:42:26;;;;;;;6.15;2.03;;;8.10;99.90;;;;;;5017815;28;20054;-91
2021/03/23 07:44:54;;;;;;;2.78;2.10;;;8.10;99.90;;;;;;5017773;28;20046;-91
2021/03/23 07:47:22;;;;;;;4.28;2.47;;;8.10;99.90;;;;;;5017804;28;20054;-90
2021/03/23 07:49:52;;;;;;;7.25;2.22;;;8.10;99.90;;;;;;5017806;28;20060;-90
2021/03/23 07:52:23;;;;;;;3.65;2.15;;;8.10;99.90;;;;;;5017550;28;20478;-90
2021/03/23 07:54:50;;;;;;;4.10;2.10;;;8.20;99.90;;;;;;5017497;28;20481;-91
2021/03/23 07:57:43;;;;;;;4.97;2.30;;;8.20;99.90;;;;;;5017634;28;20506;-91
2021/03/23 08:00:17;;;;;;;7.32;2.08;;;8.20;99.90;;;;;;5017863;28;20056;-90
2021/03/23 08:03:18;;;;;;;2.85;1.95;;;8.30;99.90;;;;;;5017907;28;20049;-92
2021/03/23 08:05:49;;;;;;;2.78;2.10;;;8.30;99.90;;;;;;4976782;28;20400;-90
2021/03/23 08:08:30;;;;;;;4.68;2.33;;;8.30;99.90;;;;;;4976986;28;20051;-91
2021/03/23 08:11:01;;;;;;;5.90;2.50;;;8.40;99.90;;;;;;4976642;28;20074;-90
2021/03/23 08:13:35;;;;;;;4.38;2.60;;;8.30;99.90;;;;;;4976715;28;20054;-90
2021/03/23 08:16:12;;;;;;;7.88;2.53;;;8.40;99.90;;;;;;4976803;28;20047;-90
2021/03/23 08:18:58;;;;;;;9.25;2.28;;;8.40;99.90;;;;;;4974658;28;20422;-92
2021/03/23 08:22:00;;;;;;;8.82;3.80;;;8.40;99.90;;;;;;4957966;28;20380;-90
2021/03/23 08:24:33;;;;;;;7.10;2.40;;;8.50;99.90;;;;;;4952740;28;20117;-90
2021/03/23 08:27:13;;;;;;;5.22;2.78;;;8.50;99.90;;;;;;4976544;28;20066;-91
2021/03/23 08:29:44;;;;;;;5.32;3.20;;;8.50;99.90;;;;;;4976407;28;20061;-89
2021/03/23 08:32:15;;;;;;;5.47;2.58;;;8.60;99.90;;;;;;4976568;28;20411;-91
2021/03/23 08:35:14;;;;;;;6.47;2.55;;;8.60;99.90;;;;;;4976270;28;20063;-90
2021/03/23 08:38:09;;;;;;;4.68;2.30;;;8.70;99.90;;;;;;4976402;28;20113;-91
2021/03/23 08:40:39;;;;;;;5.20;2.38;;;8.70;99.90;;;;;;4976243;28;20088;-91
2021/03/23 08:43:06;;;;;;;5.55;2.45;;;8.70;99.90;;;;;;5011068;28;20064;-91
2021/03/23 08:45:35;;;;;;;4.30;2.28;;;8.70;99.90;;;;;;5017027;28;20088;-90
2021/03/23 08:48:03;;;;;;;3.65;2.35;;;8.80;99.90;;;;;;5016828;28;20092;-91
2021/03/23 08:50:31;;;;;;;3.28;1.92;;;8.80;99.90;;;;;;5016616;28;20056;-91
2021/03/23 08:52:58;;;;;;;7.95;2.45;;;8.80;99.90;;;;;;5015730;28;20097;-90
2021/03/23 08:55:45;;;;;;;5.00;2.15;;;8.80;99.90;;;;;;5016680;28;20049;-91
2021/03/23 08:58:14;;;;;;;4.25;2.53;;;8.80;99.90;;;;;;5016921;28;20402;-91
2021/03/23 09:00:51;;;;;;;4.35;2.03;;;8.90;99.90;;;;;;5016642;28;20096;-91
2021/03/23 09:03:40;;;;;;;5.80;2.58;;;8.90;99.90;;;;;;5016577;28;20123;-91
2021/03/23 09:06:06;;;;;;;4.85;2.53;;;8.90;99.90;;;;;;5014740;28;20470;-92
2021/03/23 09:08:44;;;;;;;8.02;2.65;;;9.00;99.90;;;;;;5016325;28;20100;-91
2021/03/23 09:11:14;;;;;;;11.32;3.50;;;9.00;99.90;;;;;;5016425;28;20045;-91
2021/03/23 09:14:14;;;;;;;7.50;2.88;;;9.00;99.90;;;;;;5016463;28;20359;-91
2021/03/23 09:17:09;;;;;;;4.15;2.45;;;9.00;99.90;;;;;;5016225;28;20046;-91
2021/03/23 09:19:38;;;;;;;4.95;3.05;;;9.00;99.90;;;;;;5016411;28;20060;-91
2021/03/23 09:22:30;;;;;;;5.50;2.83;;;9.10;99.90;;;;;;5016239;28;20114;-91
2021/03/23 09:25:20;;;;;;;5.40;2.70;;;9.10;99.90;;;;;;5016215;28;20061;-91
2021/03/23 09:28:01;;;;;;;6.05;2.45;;;9.10;99.90;;;;;;4997442;28;20430;-91
2021/03/23 09:30:49;;;;;;;6.28;3.05;;;9.10;99.90;;;;;;5016043;28;20092;-90
2021/03/23 09:33:32;;;;;;;4.80;2.00;;;9.10;99.90;;;;;;5014369;28;20069;-90
2021/03/23 09:36:35;;;;;;;6.45;2.60;;;9.10;99.90;;;;;;5015784;28;20045;-89
2021/03/23 09:39:41;;;;;;;8.70;2.83;;;9.20;99.90;;;;;;5015940;28;20103;-91
2021/03/23 09:42:33;;;;;;;6.50;3.55;;;9.20;99.90;;;;;;5015762;28;20069;-91
2021/03/23 09:45:28;;;;;;;10.07;2.90;;;9.20;99.90;;;;;;5015614;28;20052;-90
2021/03/23 09:48:03;;;;;;;5.80;2.67;;;9.20;99.90;;;;;;5015928;28;20049;-90
2021/03/23 09:50:40;;;;;;;15.32;3.30;;;9.30;99.90;;;;;;5015979;28;20129;-90
2021/03/23 09:53:13;;;;;;;7.18;2.22;;;9.30;99.90;;;;;;5015340;28;20139;-91
2021/03/23 09:55:40;;;;;;;5.90;3.05;;;9.30;99.90;;;;;;5015457;28;20046;-90
2021/03/23 09:58:12;;;;;;;4.72;2.63;;;9.40;99.90;;;;;;5015852;28;20402;-90
2021/03/23 10:00:39;;;;;;;3.75;2.30;;;9.40;99.90;;;;;;5015559;28;20045;-90
2021/03/23 10:03:19;;;;;;;8.95;3.40;;;9.30;99.90;;;;;;5015642;28;20067;-91
2021/03/23 10:05:57;;;;;;;5.68;3.60;;;9.40;99.90;;;;;;5014583;28;20049;-90
2021/03/23 10:08:23;;;;;;;11.93;2.65;;;9.40;99.90;;;;;;5015382;28;20455;-91
2021/03/23 10:10:50;;;;;;;5.68;3.03;;;9.40;99.90;;;;;;5015419;28;20111;-90
2021/03/23 10:13:20;;;;;;;5.28;2.33;;;9.40;99.90;;;;;;5015270;28;20060;-91
2021/03/23 10:15:48;;;;;;;8.15;3.00;;;9.40;99.90;;;;;;5015561;28;20493;-91
2021/03/23 10:18:18;;;;;;;5.90;2.35;;;9.40;99.90;;;;;;5015120;28;20050;-90
2021/03/23 10:20:45;;;;;;;6.75;4.13;;;9.40;99.90;;;;;;5015128;28;20451;-91
2021/03/23 10:23:11;;;;;;;4.22;2.67;;;9.40;99.90;;;;;;5015190;28;20197;-91
2021/03/23 10:25:38;;;;;;;10.15;3.47;;;9.40;99.90;;;;;;5015327;28;20046;-91
2021/03/23 10:28:05;;;;;;;6.75;3.55;;;9.40;99.90;;;;;;5015144;28;20049;-91
2021/03/23 10:30:33;;;;;;;6.13;3.40;;;9.40;99.90;;;;;;5015261;28;20050;-91
2021/03/23 10:33:17;;;;;;;6.75;3.70;;;9.40;99.90;;;;;;5015158;28;20053;-91
2021/03/23 10:35:51;;;;;;;7.57;3.47;;;9.50;99.90;;;;;;5015214;28;20443;-91
2021/03/23 10:38:18;;;;;;;6.00;2.92;;;9.40;99.90;;;;;;5015166;28;20064;-91
2021/03/23 10:40:45;;;;;;;3.97;2.95;;;9.50;99.90;;;;;;5015241;28;20046;-91
2021/03/23 10:43:16;;;;;;;6.05;3.35;;;9.60;99.90;;;;;;5015310;28;20060;-93
2021/03/23 10:45:43;;;;;;;6.47;3.60;;;9.50;99.90;;;;;;5016673;28;20041;-95
2021/03/23 10:48:17;;;;;;;9.98;4.03;;;9.50;99.90;;;;;;5016540;28;20068;-96
2021/03/23 10:50:44;;;;;;;6.18;2.67;;;9.60;99.90;;;;;;5015277;28;20134;-95
2021/03/23 10:53:19;;;;;;;6.07;3.72;;;9.50;99.90;;;;;;5015363;28;20133;-94
2021/03/23 10:55:46;;;;;;;6.38;3.25;;;9.50;99.90;;;;;;5015236;28;20042;-94
2021/03/23 10:58:26;;;;;;;5.90;3.67;;;9.60;99.90;;;;;;5015038;28;20056;-93
2021/03/23 11:01:12;;;;;;;7.72;3.65;;;9.60;99.90;;;;;;5014558;28;20088;-93
2021/03/23 11:03:42;;;;;;;5.68;3.63;;;9.60;99.90;;;;;;5014670;28;20046;-93
2021/03/23 11:06:24;;;;;;;6.20;3.83;;;9.60;99.90;;;;;;5015097;28;20046;-87
2021/03/23 11:08:50;;;;;;;7.97;3.53;;;9.60;99.90;;;;;;5014438;28;20458;-90
2021/03/23 11:11:17;;;;;;;7.70;4.05;;;9.70;99.90;;;;;;5014366;28;20061;-93
2021/03/23 11:13:44;;;;;;;10.98;4.40;;;9.70;99.90;;;;;;5021298;28;20462;-91
2021/03/23 11:16:13;;;;;;;7.75;4.50;;;9.70;99.90;;;;;;5018578;28;20042;-92
2021/03/23 11:18:41;;;;;;;7.22;3.78;;;9.80;99.90;;;;;;5027882;28;20467;-96
2021/03/23 11:21:10;;;;;;;8.00;4.10;;;9.90;99.90;;;;;;5021452;28;20054;-96
2021/03/23 11:23:39;;;;;;;7.72;3.92;;;10.00;99.90;;;;;;5019205;28;20054;-96
2021/03/23 11:26:05;;;;;;;7.63;3.88;;;10.10;99.90;;;;;;5019233;28;20050;-90
2021/03/23 11:28:32;;;;;;;9.10;4.50;;;10.10;99.90;;;;;;5018991;28;20060;-89
2021/03/23 11:31:00;;;;;;;8.18;5.10;;;10.10;99.90;;;;;;5018919;28;20056;-92
2021/03/23 11:33:26;;;;;;;10.27;4.45;;;10.20;99.90;;;;;;5018935;28;20085;-92
2021/03/23 11:35:54;;;;;;;11.40;5.13;;;10.20;99.90;;;;;;5018965;28;20046;-92
2021/03/23 11:38:21;;;;;;;19.35;6.97;;;10.30;99.90;;;;;;5019231;28;20057;-92
2021/03/23 11:40:48;;;;;;;25.15;4.93;;;10.30;99.90;;;;;;5018750;28;20050;-93
2021/03/23 11:43:18;;;;;;;9.90;4.65;;;10.30;99.90;;;;;;5019094;28;20351;-92
2021/03/23 11:45:44;;;;;;;13.55;5.47;;;10.40;99.90;;;;;;5018596;28;20526;-93
2021/03/23 11:48:12;;;;;;;8.88;5.22;;;10.50;99.90;;;;;;5018941;28;20064;-91
2021/03/23 11:50:40;;;;;;;9.60;4.53;;;10.60;99.90;;;;;;5018734;28;20049;-89
2021/03/23 11:53:07;;;;;;;10.30;5.30;;;10.70;99.90;;;;;;5018439;28;20053;-94
2021/03/23 11:55:35;;;;;;;9.90;5.07;;;10.80;99.90;;;;;;5018735;28;20088;-89
2021/03/23 11:58:03;;;;;;;8.77;5.05;;;10.80;99.90;;;;;;5022909;28;20060;-93
2021/03/23 12:00:31;;;;;;;14.55;4.78;;;10.80;99.90;;;;;;5022404;28;20066;-90
2021/03/23 12:02:58;;;;;;;10.02;5.63;;;10.80;99.90;;;;;;5002067;28;20076;-94
2021/03/23 12:05:25;;;;;;;9.27;5.57;;;10.80;99.90;;;;;;5018473;28;20481;-95
2021/03/23 12:08:12;;;;;;;9.52;5.03;;;10.80;99.90;;;;;;5018377;28;20056;-93
2021/03/23 12:10:40;;;;;;;12.10;6.18;;;10.90;99.90;;;;;;5018738;28;20455;-94
2021/03/23 12:13:11;;;;;;;10.18;5.47;;;10.90;99.90;;;;;;5017853;28;20761;-94
2021/03/23 12:15:45;;;;;;;9.98;5.78;;;10.90;99.90;;;;;;5018121;28;20054;-94
2021/03/23 12:18:14;;;;;;;8.32;5.47;;;10.80;99.90;;;;;;5017911;28;20065;-93
2021/03/23 12:20:41;;;;;;;12.57;6.65;;;10.90;99.90;;;;;;5018287;28;20060;-94
2021/03/23 12:23:08;;;;;;;9.05;5.10;;;10.80;99.90;;;;;;5032165;28;20069;-93
2021/03/23 12:25:35;;;;;;;7.50;5.05;;;10.80;99.90;;;;;;5036993;28;20049;-93
2021/03/23 12:28:02;;;;;;;10.02;5.63;;;10.80;99.90;;;;;;5036675;28;20045;-96
2021/03/23 12:30:29;;;;;;;7.88;5.47;;;10.90;99.90;;;;;;5037602;28;20053;-94
2021/03/23 12:32:56;;;;;;;11.57;6.13;;;10.80;99.90;;;;;;5038189;28;20135;-94
2021/03/23 12:35:24;;;;;;;11.25;5.60;;;10.70;99.90;;;;;;5037543;28;20079;-93
2021/03/23 12:37:52;;;;;;;11.52;5.28;;;10.70;99.90;;;;;;5037567;28;20084;-93
2021/03/23 12:40:20;;;;;;;8.70;4.57;;;10.70;99.90;;;;;;5037485;28;20076;-94
2021/03/23 12:42:48;;;;;;;11.95;5.78;;;10.70;99.90;;;;;;5037772;28;20466;-94
2021/03/23 12:45:21;;;;;;;11.85;5.53;;;10.60;99.90;;;;;;5037664;28;20447;-94
2021/03/23 12:47:48;;;;;;;12.30;5.53;;;10.50;99.90;;;;;;5037501;28;20068;-95
2021/03/23 12:50:15;;;;;;;12.65;6.15;;;10.50;99.90;;;;;;5036469;28;20049;-95
2021/03/23 12:52:42;;;;;;;9.55;5.82;;;10.40;99.90;;;;;;5036640;28;20131;-94
2021/03/23 12:55:16;;;;;;;11.15;5.88;;;10.50;99.90;;;;;;5036498;28;20058;-95
2021/03/23 12:57:42;;;;;;;11.70;5.15;;;10.50;99.90;;;;;;5037102;28;20045;-93
2021/03/23 13:00:13;;;;;;;14.43;6.07;;;10.60;99.90;;;;;;5036721;28;20462;-93
2021/03/23 13:02:39;;;;;;;12.52;5.18;;;10.60;99.90;;;;;;5036747;28;20049;-92
2021/03/23 13:05:07;;;;;;;10.40;5.90;;;10.70;99.90;;;;;;5036794;28;20394;-89
2021/03/23 13:07:37;;;;;;;9.82;5.53;;;10.80;99.90;;;;;;5036675;28;20071;-91
2021/03/23 13:10:06;;;;;;;11.73;6.45;;;10.80;99.90;;;;;;5036403;28;20045;-91